Time;durP1;ratioP1;P1;durP2;ratioP2;P2;SDS_P1;SDS_P2;PMS_P1;PMS_P2;Temp;Humidity;BMP_temperature;BMP_pressure;BME280_temperature;BME280_humidity;BME280_pressure;Samples;Min_cycle;Max_cycle;Signal;HPM_P1;HPM_P2
2021/11/07 00:00:02;;;;;;;;;;;;;;;;;;1017400;29;1365;-24
2021/11/07 00:00:55;;;;;;;;;;;;;;;;;;1010110;29;1131;-24
2021/11/07 00:02:58;;;;;;;;;;;;;;;;;;1009508;29;1484;-24
2021/11/07 00:03:59;;;;;;;;;;;;;;;;;;1009838;29;1059;-24
2021/11/07 00:04:31;;;;;;;;;;;;;;;;;;1014053;29;1679;-23
2021/11/07 00:05:03;;;;;;;;;;;;;;;;;;1013996;29;1011;-24
2021/11/07 00:05:42;;;;;;;;;;;;;;;;;;1013192;29;1396;-24
2021/11/07 00:06:21;;;;;;;;;;;;;;;;;;1014255;29;1002;-23
2021/11/07 00:07:28;;;;;;;;;;;;;;;;;;1013396;29;1065;-22
2021/11/07 00:08:16;;;;;;;;;;;;;;;;;;1013475;29;1226;-24
2021/11/07 00:09:32;;;;;;;;;;;;;;;;;;1012885;29;1441;-24
2021/11/07 00:10:07;;;;;;;;;;;;;;;;;;1013553;29;1069;-24
2021/11/07 00:11:01;;;;;;;;;;;;;;;;;;1013190;29;1481;-24
2021/11/07 00:11:35;;;;;;;;;;;;;;;;;;1005501;29;1177;-25
2021/11/07 00:12:16;;;;;;;;;;;;;;;;;;1005124;29;1452;-23
2021/11/07 00:12:49;;;;;;;;;;;;;;;;;;1005732;29;1156;-24
2021/11/07 00:13:24;;;;;;;;;;;;;;;;;;1007967;29;1477;-24
2021/11/07 00:13:54;;;;;;;;;;;;;;;;;;1009466;29;1222;-22
2021/11/07 00:14:25;;;;;;;;;;;;;;;;;;1012120;29;1444;-20
2021/11/07 00:14:56;;;;;;;;;;;;;;;;;;1013814;29;1265;-24
2021/11/07 00:15:26;;;;;;;;;;;;;;;;;;1014066;29;1270;-24
2021/11/07 00:16:05;;;;;;;;;;;;;;;;;;1013015;29;1404;-24
2021/11/07 00:16:43;;;;;;;;;;;;;;;;;;1013257;29;1174;-24
2021/11/07 00:17:18;;;;;;;;;;;;;;;;;;1013180;29;1641;-23
2021/11/07 00:17:53;;;;;;;;;;;;;;;;;;1010919;29;2001;-24
2021/11/07 00:18:44;;;;;;;;;;;;;;;;;;1011125;29;1667;-22
2021/11/07 00:19:26;;;;;;;;;;;;;;;;;;1013494;29;1081;-24
2021/11/07 00:20:04;;;;;;;;;;;;;;;;;;1009257;29;1376;-24
2021/11/07 00:20:36;;;;;;;;;;;;;;;;;;1008263;29;1148;-24
2021/11/07 00:21:50;;;;;;;;;;;;;;;;;;1012889;29;1463;-24
2021/11/07 00:23:14;;;;;;;;;;;;;;;;;;1020374;29;1146;-24
2021/11/07 00:23:34;;;;;;;;;;;;;;;;;;1016258;29;1552;-24
2021/11/07 00:24:15;;;;;;;;;;;;;;;;;;1018657;29;1137;-24
2021/11/07 00:25:16;;;;;;;;;;;;;;;;;;1021441;29;1052;-23
2021/11/07 00:25:45;;;;;;;;;;;;;;;;;;1020693;29;1948;-24
2021/11/07 00:26:29;;;;;;;;;;;;;;;;;;1021081;29;1045;-24
2021/11/07 00:27:39;;;;;;;;;;;;;;;;;;1012223;29;1301;-24
2021/11/07 00:28:29;;;;;;;;;;;;;;;;;;1012970;29;1447;-24
2021/11/07 00:29:10;;;;;;;;;;;;;;;;;;1017207;29;1060;-24
2021/11/07 00:29:49;;;;;;;;;;;;;;;;;;1020905;29;1064;-24
2021/11/07 00:30:33;;;;;;;;;;;;;;;;;;1021337;29;881;-25
2021/11/07 00:32:22;;;;;;;;;;;;;;;;;;1009272;29;1215;-24
2021/11/07 00:33:10;;;;;;;;;;;;;;;;;;1013284;29;1082;-23
2021/11/07 00:34:27;;;;;;;;;;;;;;;;;;1021176;29;1041;-24
2021/11/07 00:36:25;;;;;;;;;;;;;;;;;;1013630;29;1539;-24
2021/11/07 00:37:00;;;;;;;;;;;;;;;;;;1013839;29;962;-24
2021/11/07 00:37:39;;;;;;;;;;;;;;;;;;1016564;29;1990;-24
2021/11/07 00:38:20;;;;;;;;;;;;;;;;;;1013160;29;968;-23
2021/11/07 00:39:10;;;;;;;;;;;;;;;;;;1004894;29;1547;-24
2021/11/07 00:41:16;;;;;;;;;;;;;;;;;;999446;29;1099;-24
2021/11/07 00:42:10;;;;;;;;;;;;;;;;;;1009364;29;1277;-24
2021/11/07 00:42:59;;;;;;;;;;;;;;;;;;1016817;29;1100;-24
2021/11/07 00:44:06;;;;;;;;;;;;;;;;;;1021292;29;1029;-24
2021/11/07 00:44:34;;;;;;;;;;;;;;;;;;1010518;29;1162;-24
2021/11/07 00:46:15;;;;;;;;;;;;;;;;;;1006327;29;1224;-24
2021/11/07 00:46:50;;;;;;;;;;;;;;;;;;1013309;29;1243;-24
2021/11/07 00:48:47;;;;;;;;;;;;;;;;;;1021081;29;907;-24
2021/11/07 00:49:25;;;;;;;;;;;;;;;;;;1020989;29;1001;-24
2021/11/07 00:49:58;;;;;;;;;;;;;;;;;;1017332;29;1098;-24
2021/11/07 00:50:42;;;;;;;;;;;;;;;;;;1020747;29;1389;-23
2021/11/07 00:53:09;;;;;;;;;;;;;;;;;;997746;29;1141;-24
2021/11/07 00:54:25;;;;;;;;;;;;;;;;;;1011154;29;1160;-24
2021/11/07 00:55:11;;;;;;;;;;;;;;;;;;1019974;29;1460;-24
2021/11/07 00:56:01;;;;;;;;;;;;;;;;;;1020881;29;1136;-23
2021/11/07 00:56:43;;;;;;;;;;;;;;;;;;1016166;29;1735;-23
2021/11/07 00:57:18;;;;;;;;;;;;;;;;;;1013775;29;1057;-24
2021/11/07 00:57:55;;;;;;;;;;;;;;;;;;1013780;29;1911;-23
2021/11/07 00:58:39;;;;;;;;;;;;;;;;;;1013925;29;902;-24
2021/11/07 00:59:36;;;;;;;;;;;;;;;;;;1013277;29;1157;-24
2021/11/07 01:00:16;;;;;;;;;;;;;;;;;;1008822;29;1346;-24
2021/11/07 01:01:20;;;;;;;;;;;;;;;;;;1007094;29;1026;-23
2021/11/07 01:02:10;;;;;;;;;;;;;;;;;;1013133;29;1157;-24
2021/11/07 01:02:41;;;;;;;;;;;;;;;;;;1012399;29;1678;-24
2021/11/07 01:03:16;;;;;;;;;;;;;;;;;;1012995;29;1268;-24
2021/11/07 01:03:47;;;;;;;;;;;;;;;;;;1005432;29;1103;-23
2021/11/07 01:04:17;;;;;;;;;;;;;;;;;;1005090;29;1550;-24
2021/11/07 01:04:49;;;;;;;;;;;;;;;;;;1005202;29;1107;-24
2021/11/07 01:05:26;;;;;;;;;;;;;;;;;;1009494;29;1170;-22
2021/11/07 01:06:00;;;;;;;;;;;;;;;;;;1020578;29;1183;-23
2021/11/07 01:06:31;;;;;;;;;;;;;;;;;;1020975;29;1100;-24
2021/11/07 01:07:02;;;;;;;;;;;;;;;;;;1020625;29;1204;-24
2021/11/07 01:07:33;;;;;;;;;;;;;;;;;;1013001;29;1092;-24
2021/11/07 01:08:03;;;;;;;;;;;;;;;;;;1012638;29;1523;-23
2021/11/07 01:08:34;;;;;;;;;;;;;;;;;;1012980;29;1262;-24
2021/11/07 01:09:08;;;;;;;;;;;;;;;;;;1013317;29;951;-23
2021/11/07 01:09:39;;;;;;;;;;;;;;;;;;1019554;29;1569;-24
2021/11/07 01:10:10;;;;;;;;;;;;;;;;;;1021070;29;1021;-24
2021/11/07 01:10:40;;;;;;;;;;;;;;;;;;1012542;29;1432;-24
2021/11/07 01:11:11;;;;;;;;;;;;;;;;;;1012833;29;1174;-23
2021/11/07 01:11:42;;;;;;;;;;;;;;;;;;1013034;29;1322;-24
2021/11/07 01:12:12;;;;;;;;;;;;;;;;;;1009149;29;1428;-23
2021/11/07 01:12:43;;;;;;;;;;;;;;;;;;1013046;29;1196;-24
2021/11/07 01:13:13;;;;;;;;;;;;;;;;;;1013964;29;926;-24
2021/11/07 01:13:44;;;;;;;;;;;;;;;;;;1021028;29;1040;-24
2021/11/07 01:14:17;;;;;;;;;;;;;;;;;;1021069;29;913;-25
2021/11/07 01:14:48;;;;;;;;;;;;;;;;;;1020915;29;909;-23
2021/11/07 01:15:19;;;;;;;;;;;;;;;;;;1020278;29;994;-23
2021/11/07 01:15:49;;;;;;;;;;;;;;;;;;1013948;29;1098;-24
2021/11/07 01:16:21;;;;;;;;;;;;;;;;;;1020530;29;1645;-24
2021/11/07 01:16:52;;;;;;;;;;;;;;;;;;1024789;28;1032;-24
2021/11/07 01:17:23;;;;;;;;;;;;;;;;;;1016803;29;963;-23
2021/11/07 01:17:56;;;;;;;;;;;;;;;;;;1000924;29;1914;-24
2021/11/07 01:18:27;;;;;;;;;;;;;;;;;;996968;29;1070;-23
2021/11/07 01:18:58;;;;;;;;;;;;;;;;;;989524;29;1537;-24
2021/11/07 01:19:28;;;;;;;;;;;;;;;;;;995131;29;1236;-23
2021/11/07 01:20:05;;;;;;;;;;;;;;;;;;1004726;29;1538;-24
2021/11/07 01:20:36;;;;;;;;;;;;;;;;;;1005888;29;1394;-23
2021/11/07 01:21:10;;;;;;;;;;;;;;;;;;1009956;29;879;-24
2021/11/07 01:21:42;;;;;;;;;;;;;;;;;;1009727;29;982;-24
2021/11/07 01:22:18;;;;;;;;;;;;;;;;;;1009880;29;844;-24
2021/11/07 01:23:34;;;;;;;;;;;;;;;;;;1010070;29;986;-24
2021/11/07 01:24:20;;;;;;;;;;;;;;;;;;1009395;29;1445;-23
2021/11/07 01:24:55;;;;;;;;;;;;;;;;;;1009723;29;1210;-24
2021/11/07 01:25:28;;;;;;;;;;;;;;;;;;1009610;29;1070;-23
2021/11/07 01:26:08;;;;;;;;;;;;;;;;;;1009834;29;1415;-24
2021/11/07 01:26:45;;;;;;;;;;;;;;;;;;1009646;29;1361;-24
2021/11/07 01:27:22;;;;;;;;;;;;;;;;;;1009556;29;1250;-21
2021/11/07 01:27:57;;;;;;;;;;;;;;;;;;1009489;29;1519;-24
2021/11/07 01:28:35;;;;;;;;;;;;;;;;;;1005363;29;1127;-24
2021/11/07 01:29:15;;;;;;;;;;;;;;;;;;1005280;29;1106;-24
2021/11/07 01:29:49;;;;;;;;;;;;;;;;;;1005225;29;1107;-24
2021/11/07 01:30:24;;;;;;;;;;;;;;;;;;1008867;29;923;-23
2021/11/07 01:30:58;;;;;;;;;;;;;;;;;;971325;29;1126119;-24
2021/11/07 01:31:33;;;;;;;;;;;;;;;;;;1010008;29;965;-24
2021/11/07 01:32:03;;;;;;;;;;;;;;;;;;1009357;29;1382;-24
2021/11/07 01:32:41;;;;;;;;;;;;;;;;;;1017020;29;1157;-24
2021/11/07 01:33:18;;;;;;;;;;;;;;;;;;1020569;29;1532;-22
2021/11/07 01:33:48;;;;;;;;;;;;;;;;;;1016675;29;1162;-23
2021/11/07 01:36:44;;;;;;;;;;;;;;;;;;1008901;29;1131;-22
2021/11/07 01:37:20;;;;;;;;;;;;;;;;;;1012870;29;1777;-24
2021/11/07 01:39:43;;;;;;;;;;;;;;;;;;997575;29;1328;-24
2021/11/07 01:40:12;;;;;;;;;;;;;;;;;;999479;29;1767;-24
2021/11/07 01:40:56;;;;;;;;;;;;;;;;;;1003473;29;1083;-24
2021/11/07 01:42:16;;;;;;;;;;;;;;;;;;1001583;29;971;-24
2021/11/07 01:42:58;;;;;;;;;;;;;;;;;;1016942;29;1042;-24
2021/11/07 01:43:29;;;;;;;;;;;;;;;;;;1013138;29;1038;-24
2021/11/07 01:44:00;;;;;;;;;;;;;;;;;;1012221;29;1735;-24
2021/11/07 01:44:38;;;;;;;;;;;;;;;;;;1004785;29;1045;-24
2021/11/07 01:45:31;;;;;;;;;;;;;;;;;;1006400;29;1388;-24
2021/11/07 01:46:16;;;;;;;;;;;;;;;;;;1008610;29;1093;-24
2021/11/07 01:46:51;;;;;;;;;;;;;;;;;;1005025;29;1417;-24
2021/11/07 01:47:22;;;;;;;;;;;;;;;;;;1005220;29;1418;-24
2021/11/07 01:48:09;;;;;;;;;;;;;;;;;;1005068;29;1698;-23
2021/11/07 01:48:51;;;;;;;;;;;;;;;;;;1008930;29;1035;-24
2021/11/07 01:49:26;;;;;;;;;;;;;;;;;;1008990;29;1387;-24
2021/11/07 01:49:57;;;;;;;;;;;;;;;;;;1009355;29;1211;-24
2021/11/07 01:50:27;;;;;;;;;;;;;;;;;;1009156;29;916;-23
2021/11/07 01:51:01;;;;;;;;;;;;;;;;;;1008484;29;1095;-24
2021/11/07 01:51:33;;;;;;;;;;;;;;;;;;1009171;29;1076;-24
2021/11/07 01:52:06;;;;;;;;;;;;;;;;;;1009077;29;1668;-24
2021/11/07 01:52:41;;;;;;;;;;;;;;;;;;1009337;29;1042;-24
2021/11/07 01:53:51;;;;;;;;;;;;;;;;;;1009967;29;825;-24
2021/11/07 01:54:27;;;;;;;;;;;;;;;;;;1005354;29;1004;-23
2021/11/07 01:55:03;;;;;;;;;;;;;;;;;;1012143;29;1534;-24
2021/11/07 01:55:34;;;;;;;;;;;;;;;;;;1005211;29;1176;-23
2021/11/07 01:56:06;;;;;;;;;;;;;;;;;;1010464;29;1412;-24
2021/11/07 01:56:36;;;;;;;;;;;;;;;;;;1011294;29;1561;-24
2021/11/07 01:57:07;;;;;;;;;;;;;;;;;;1004864;29;1157;-24
2021/11/07 01:57:37;;;;;;;;;;;;;;;;;;1005021;29;1919;-24
2021/11/07 01:58:08;;;;;;;;;;;;;;;;;;1009910;29;1371;-23
2021/11/07 01:58:39;;;;;;;;;;;;;;;;;;1009334;29;1506;-24
2021/11/07 01:59:10;;;;;;;;;;;;;;;;;;1009000;29;1319;-23
2021/11/07 01:59:45;;;;;;;;;;;;;;;;;;1009382;29;1022;-24
2021/11/07 02:00:20;;;;;;;;;;;;;;;;;;1008789;29;1346;-23
2021/11/07 02:00:52;;;;;;;;;;;;;;;;;;1009472;29;1277;-24
2021/11/07 02:01:23;;;;;;;;;;;;;;;;;;1012965;29;1576;-19
2021/11/07 02:01:55;;;;;;;;;;;;;;;;;;1013055;29;1170;-24
2021/11/07 02:02:33;;;;;;;;;;;;;;;;;;1013192;29;1030;-24
2021/11/07 02:03:04;;;;;;;;;;;;;;;;;;1011358;29;1294;-23
2021/11/07 02:03:35;;;;;;;;;;;;;;;;;;1009454;29;1264;-24
2021/11/07 02:04:07;;;;;;;;;;;;;;;;;;1009175;29;1082;-24
2021/11/07 02:04:37;;;;;;;;;;;;;;;;;;1008872;29;1170;-24
2021/11/07 02:05:08;;;;;;;;;;;;;;;;;;1009892;29;1211;-24
2021/11/07 02:05:40;;;;;;;;;;;;;;;;;;1012203;29;1404;-24
2021/11/07 02:06:10;;;;;;;;;;;;;;;;;;1012855;29;1275;-24
2021/11/07 02:06:41;;;;;;;;;;;;;;;;;;1013124;29;916;-24
2021/11/07 02:07:11;;;;;;;;;;;;;;;;;;1012184;29;1802;-24
2021/11/07 02:07:42;;;;;;;;;;;;;;;;;;1009468;29;1060;-24
2021/11/07 02:08:13;;;;;;;;;;;;;;;;;;1008515;29;1483;-24
2021/11/07 02:08:45;;;;;;;;;;;;;;;;;;1012459;29;1533;-23
2021/11/07 02:09:17;;;;;;;;;;;;;;;;;;1016865;29;1109;-24
2021/11/07 02:09:47;;;;;;;;;;;;;;;;;;1012171;29;1530;-22
2021/11/07 02:10:21;;;;;;;;;;;;;;;;;;1011934;29;1281;-24
2021/11/07 02:10:54;;;;;;;;;;;;;;;;;;1007829;29;1321;-24
2021/11/07 02:11:24;;;;;;;;;;;;;;;;;;1001109;29;1237;-23
2021/11/07 02:11:54;;;;;;;;;;;;;;;;;;1002930;29;1070;-24
2021/11/07 02:12:26;;;;;;;;;;;;;;;;;;1011939;29;1504;-24
2021/11/07 02:12:56;;;;;;;;;;;;;;;;;;1012771;29;1168;-23
2021/11/07 02:13:30;;;;;;;;;;;;;;;;;;1013082;29;1024;-24
2021/11/07 02:14:01;;;;;;;;;;;;;;;;;;1012031;29;1551;-23
2021/11/07 02:14:32;;;;;;;;;;;;;;;;;;1009832;29;1042;-24
2021/11/07 02:15:08;;;;;;;;;;;;;;;;;;1009642;29;1364;-24
2021/11/07 02:15:39;;;;;;;;;;;;;;;;;;1008933;29;1020;-24
2021/11/07 02:16:10;;;;;;;;;;;;;;;;;;1009056;29;1281;-23
2021/11/07 02:16:41;;;;;;;;;;;;;;;;;;1008404;29;1733;-24
2021/11/07 02:17:11;;;;;;;;;;;;;;;;;;1009134;29;1050;-24
2021/11/07 02:17:43;;;;;;;;;;;;;;;;;;1016411;29;1902;-24
2021/11/07 02:18:15;;;;;;;;;;;;;;;;;;1016916;29;1191;-23
2021/11/07 02:18:46;;;;;;;;;;;;;;;;;;1016984;29;1045;-23
2021/11/07 02:19:22;;;;;;;;;;;;;;;;;;1016394;29;1587;-24
2021/11/07 02:19:53;;;;;;;;;;;;;;;;;;1020759;29;1249;-24
2021/11/07 02:20:35;;;;;;;;;;;;;;;;;;1012909;29;1274;-24
2021/11/07 02:21:08;;;;;;;;;;;;;;;;;;1009483;29;1588;-24
2021/11/07 02:21:38;;;;;;;;;;;;;;;;;;1009147;29;1084;-24
2021/11/07 02:22:14;;;;;;;;;;;;;;;;;;1010910;29;1425;-24
2021/11/07 02:22:45;;;;;;;;;;;;;;;;;;1020856;29;1198;-24
2021/11/07 02:23:20;;;;;;;;;;;;;;;;;;1021178;29;1070;-23
2021/11/07 02:23:51;;;;;;;;;;;;;;;;;;1012748;29;1238;-23
2021/11/07 02:24:21;;;;;;;;;;;;;;;;;;1012538;29;1171;-24
2021/11/07 02:24:53;;;;;;;;;;;;;;;;;;1012177;29;1497;-24
2021/11/07 02:25:24;;;;;;;;;;;;;;;;;;1012518;29;1574;-24
2021/11/07 02:25:57;;;;;;;;;;;;;;;;;;1009139;29;1073;-24
2021/11/07 02:26:28;;;;;;;;;;;;;;;;;;1007458;29;2019;-24
2021/11/07 02:26:59;;;;;;;;;;;;;;;;;;1005587;29;1213;-24
2021/11/07 02:27:38;;;;;;;;;;;;;;;;;;1010989;29;1548;-24
2021/11/07 02:28:09;;;;;;;;;;;;;;;;;;1016522;29;1583;-24
2021/11/07 02:28:42;;;;;;;;;;;;;;;;;;1017277;29;1049;-24
2021/11/07 02:29:12;;;;;;;;;;;;;;;;;;1015246;29;1553;-24
2021/11/07 02:29:43;;;;;;;;;;;;;;;;;;1020527;29;1280;-24
2021/11/07 02:30:15;;;;;;;;;;;;;;;;;;1020368;29;1560;-24
2021/11/07 02:30:48;;;;;;;;;;;;;;;;;;1020590;29;1223;-22
2021/11/07 02:31:19;;;;;;;;;;;;;;;;;;1019857;29;1309;-24
2021/11/07 02:31:50;;;;;;;;;;;;;;;;;;1020115;29;1506;-24
2021/11/07 02:32:21;;;;;;;;;;;;;;;;;;1020668;29;1426;-24
2021/11/07 02:32:52;;;;;;;;;;;;;;;;;;1016565;29;1550;-24
2021/11/07 02:33:26;;;;;;;;;;;;;;;;;;1016406;29;1165;-23
2021/11/07 02:33:56;;;;;;;;;;;;;;;;;;1012964;29;1029;-23
2021/11/07 02:34:30;;;;;;;;;;;;;;;;;;1012499;29;1490;-23
2021/11/07 02:35:00;;;;;;;;;;;;;;;;;;1013901;29;1032;-24
2021/11/07 02:35:33;;;;;;;;;;;;;;;;;;1012484;29;1474;-24
2021/11/07 02:36:08;;;;;;;;;;;;;;;;;;1012906;29;1005;-25
2021/11/07 02:36:38;;;;;;;;;;;;;;;;;;1012905;29;903;-23
2021/11/07 02:37:10;;;;;;;;;;;;;;;;;;1012702;29;1438;-23
2021/11/07 02:37:41;;;;;;;;;;;;;;;;;;1020791;29;1914;-23
2021/11/07 02:38:15;;;;;;;;;;;;;;;;;;1020310;29;1434;-23
2021/11/07 02:38:46;;;;;;;;;;;;;;;;;;1020383;29;1249;-24
2021/11/07 02:39:17;;;;;;;;;;;;;;;;;;1019444;29;1279;-23
2021/11/07 02:39:50;;;;;;;;;;;;;;;;;;1012695;29;1630;-22
2021/11/07 02:40:21;;;;;;;;;;;;;;;;;;1013634;29;1003;-24
2021/11/07 02:40:54;;;;;;;;;;;;;;;;;;1020635;29;1447;-23
2021/11/07 02:41:24;;;;;;;;;;;;;;;;;;1020869;29;1084;-24
2021/11/07 02:41:55;;;;;;;;;;;;;;;;;;1021187;29;1041;-24
2021/11/07 02:42:25;;;;;;;;;;;;;;;;;;1020126;29;950;-24
2021/11/07 02:42:56;;;;;;;;;;;;;;;;;;1013826;29;887;-24
2021/11/07 02:43:27;;;;;;;;;;;;;;;;;;1016639;29;1631;-19
2021/11/07 02:44:00;;;;;;;;;;;;;;;;;;1016241;29;1265;-24
2021/11/07 02:44:35;;;;;;;;;;;;;;;;;;1012715;29;1187;-24
2021/11/07 02:45:06;;;;;;;;;;;;;;;;;;1012012;29;1194;-24
2021/11/07 02:45:40;;;;;;;;;;;;;;;;;;1016669;29;1168;-24
2021/11/07 02:46:18;;;;;;;;;;;;;;;;;;1010089;29;1030;-24
2021/11/07 02:46:48;;;;;;;;;;;;;;;;;;1012731;29;953;-24
2021/11/07 02:47:19;;;;;;;;;;;;;;;;;;1010207;29;1068;-24
2021/11/07 02:47:50;;;;;;;;;;;;;;;;;;1005357;29;1684;-24
2021/11/07 02:48:21;;;;;;;;;;;;;;;;;;1009062;29;1090;-24
2021/11/07 02:48:58;;;;;;;;;;;;;;;;;;1009053;29;1276;-24
2021/11/07 02:49:29;;;;;;;;;;;;;;;;;;1016892;29;918;-24
2021/11/07 02:50:00;;;;;;;;;;;;;;;;;;1013043;29;998;-24
2021/11/07 02:50:31;;;;;;;;;;;;;;;;;;1008212;29;1199;-24
2021/11/07 02:51:02;;;;;;;;;;;;;;;;;;1009059;29;1169;-23
2021/11/07 02:51:36;;;;;;;;;;;;;;;;;;1009004;29;894;-24
2021/11/07 02:52:08;;;;;;;;;;;;;;;;;;1013364;29;1259;-23
2021/11/07 02:52:39;;;;;;;;;;;;;;;;;;1020687;29;1251;-24
2021/11/07 02:53:10;;;;;;;;;;;;;;;;;;1020481;29;1152;-24
2021/11/07 02:53:40;;;;;;;;;;;;;;;;;;1020913;29;1042;-24
2021/11/07 02:54:13;;;;;;;;;;;;;;;;;;1020202;29;1532;-21
2021/11/07 02:54:47;;;;;;;;;;;;;;;;;;1013187;29;1163;-23
2021/11/07 02:55:18;;;;;;;;;;;;;;;;;;1020668;29;1135;-24
2021/11/07 02:55:48;;;;;;;;;;;;;;;;;;1020196;29;1412;-24
2021/11/07 02:56:22;;;;;;;;;;;;;;;;;;1020935;29;1123;-24
2021/11/07 02:56:53;;;;;;;;;;;;;;;;;;1019839;29;1149;-24
2021/11/07 02:57:26;;;;;;;;;;;;;;;;;;1013424;29;1246;-24
2021/11/07 02:57:58;;;;;;;;;;;;;;;;;;1013629;29;1982;-24
2021/11/07 02:58:28;;;;;;;;;;;;;;;;;;1013306;29;1361;-24
2021/11/07 02:59:19;;;;;;;;;;;;;;;;;;1013369;29;1179;-25
2021/11/07 02:59:57;;;;;;;;;;;;;;;;;;1020282;29;1420;-24
2021/11/07 03:00:29;;;;;;;;;;;;;;;;;;1021190;29;1057;-23
2021/11/07 03:01:00;;;;;;;;;;;;;;;;;;1012498;29;1363;-23
2021/11/07 03:01:32;;;;;;;;;;;;;;;;;;1013567;29;1306;-24
2021/11/07 03:02:05;;;;;;;;;;;;;;;;;;1020502;29;1110;-24
2021/11/07 03:02:38;;;;;;;;;;;;;;;;;;1019704;29;1504;-24
2021/11/07 03:03:09;;;;;;;;;;;;;;;;;;1015002;29;1132;-24
2021/11/07 03:03:40;;;;;;;;;;;;;;;;;;1013592;29;991;-23
2021/11/07 03:04:10;;;;;;;;;;;;;;;;;;1016354;29;1421;-23
2021/11/07 03:04:41;;;;;;;;;;;;;;;;;;1016805;29;1001;-24
2021/11/07 03:05:12;;;;;;;;;;;;;;;;;;1020718;29;1073;-24
2021/11/07 03:05:43;;;;;;;;;;;;;;;;;;1012583;29;1399;-24
2021/11/07 03:06:13;;;;;;;;;;;;;;;;;;1012817;29;1122;-24
2021/11/07 03:06:44;;;;;;;;;;;;;;;;;;1008878;29;992;-24
2021/11/07 03:07:17;;;;;;;;;;;;;;;;;;1009107;29;935;-24
2021/11/07 03:07:48;;;;;;;;;;;;;;;;;;1013724;29;879;-24
2021/11/07 03:08:19;;;;;;;;;;;;;;;;;;1012930;29;1588;-23
2021/11/07 03:08:51;;;;;;;;;;;;;;;;;;1013397;29;978;-24
2021/11/07 03:09:23;;;;;;;;;;;;;;;;;;1013659;29;1072;-24
2021/11/07 03:09:56;;;;;;;;;;;;;;;;;;1013269;29;993;-23
2021/11/07 03:10:30;;;;;;;;;;;;;;;;;;1020878;29;1137;-24
2021/11/07 03:11:01;;;;;;;;;;;;;;;;;;1020500;29;1468;-24
2021/11/07 03:11:39;;;;;;;;;;;;;;;;;;1012764;29;1107;-23
2021/11/07 03:12:11;;;;;;;;;;;;;;;;;;1010073;29;1497;-24
2021/11/07 03:12:42;;;;;;;;;;;;;;;;;;1012524;29;1120;-23
2021/11/07 03:13:14;;;;;;;;;;;;;;;;;;1000961;29;1119;-24
2021/11/07 03:13:45;;;;;;;;;;;;;;;;;;1000066;29;1489;-24
2021/11/07 03:14:18;;;;;;;;;;;;;;;;;;1001371;29;1096;-24
2021/11/07 03:14:50;;;;;;;;;;;;;;;;;;1005176;29;1415;-23
2021/11/07 03:15:21;;;;;;;;;;;;;;;;;;1008351;29;1229;-24
2021/11/07 03:15:52;;;;;;;;;;;;;;;;;;1009153;29;1060;-24
2021/11/07 03:16:23;;;;;;;;;;;;;;;;;;1012825;29;1178;-24
2021/11/07 03:16:54;;;;;;;;;;;;;;;;;;1012666;29;1212;-24
2021/11/07 03:17:25;;;;;;;;;;;;;;;;;;1017023;29;852;-23
2021/11/07 03:17:59;;;;;;;;;;;;;;;;;;1013436;29;1978;-24
2021/11/07 03:18:31;;;;;;;;;;;;;;;;;;1013517;29;1123;-24
2021/11/07 03:19:02;;;;;;;;;;;;;;;;;;1015896;29;1429;-24
2021/11/07 03:19:33;;;;;;;;;;;;;;;;;;1008592;29;1312;-24
2021/11/07 03:20:06;;;;;;;;;;;;;;;;;;1012667;29;1042;-24
2021/11/07 03:20:37;;;;;;;;;;;;;;;;;;1011126;29;1524;-22
2021/11/07 03:21:08;;;;;;;;;;;;;;;;;;1005639;29;1093;-23
2021/11/07 03:21:39;;;;;;;;;;;;;;;;;;1004834;29;1624;-24
2021/11/07 03:22:12;;;;;;;;;;;;;;;;;;1008519;29;1563;-23
2021/11/07 03:22:42;;;;;;;;;;;;;;;;;;1009123;29;1136;-23
2021/11/07 03:23:19;;;;;;;;;;;;;;;;;;1008608;29;1548;-22
2021/11/07 03:23:51;;;;;;;;;;;;;;;;;;1015708;29;1393;-23
2021/11/07 03:24:22;;;;;;;;;;;;;;;;;;1013109;29;1350;-23
2021/11/07 03:24:55;;;;;;;;;;;;;;;;;;1013263;29;1126;-23
2021/11/07 03:25:29;;;;;;;;;;;;;;;;;;1013511;29;923;-24
2021/11/07 03:26:06;;;;;;;;;;;;;;;;;;1013133;29;1153;-23
2021/11/07 03:26:38;;;;;;;;;;;;;;;;;;1013435;29;1084;-24
2021/11/07 03:27:19;;;;;;;;;;;;;;;;;;1013106;29;1443;-24
2021/11/07 03:27:50;;;;;;;;;;;;;;;;;;1013701;29;1077;-23
2021/11/07 03:28:20;;;;;;;;;;;;;;;;;;1013399;29;1245;-23
2021/11/07 03:28:54;;;;;;;;;;;;;;;;;;1013410;29;1254;-22
2021/11/07 03:29:33;;;;;;;;;;;;;;;;;;1013558;29;1076;-24
2021/11/07 03:30:09;;;;;;;;;;;;;;;;;;1008816;29;1232;-24
2021/11/07 03:31:28;;;;;;;;;;;;;;;;;;1004797;29;1327;-24
2021/11/07 03:32:07;;;;;;;;;;;;;;;;;;1005137;29;1215;-24
2021/11/07 03:32:39;;;;;;;;;;;;;;;;;;1005115;29;1570;-24
2021/11/07 03:33:46;;;;;;;;;;;;;;;;;;1012556;29;1380;-23
2021/11/07 03:34:24;;;;;;;;;;;;;;;;;;1006228;29;1188;-23
2021/11/07 03:35:04;;;;;;;;;;;;;;;;;;1008702;29;1755;-24
2021/11/07 03:35:34;;;;;;;;;;;;;;;;;;1001168;29;1090;-24
2021/11/07 03:36:07;;;;;;;;;;;;;;;;;;1006258;29;921;-24
2021/11/07 03:36:49;;;;;;;;;;;;;;;;;;1005881;29;1609;-24
2021/11/07 03:37:26;;;;;;;;;;;;;;;;;;1010820;29;1095;-23
2021/11/07 03:37:56;;;;;;;;;;;;;;;;;;1012373;29;1930;-24
2021/11/07 03:38:28;;;;;;;;;;;;;;;;;;1013046;29;1163;-24
2021/11/07 03:38:58;;;;;;;;;;;;;;;;;;1008779;29;1017;-24
2021/11/07 03:39:29;;;;;;;;;;;;;;;;;;1008921;29;967;-24
2021/11/07 03:40:01;;;;;;;;;;;;;;;;;;1005111;29;1073;-23
2021/11/07 03:40:33;;;;;;;;;;;;;;;;;;1004797;29;1306;-23
2021/11/07 03:41:04;;;;;;;;;;;;;;;;;;1009138;29;1326;-24
2021/11/07 03:41:34;;;;;;;;;;;;;;;;;;1008242;29;1754;-24
2021/11/07 03:42:07;;;;;;;;;;;;;;;;;;1005124;29;932;-23
2021/11/07 03:42:38;;;;;;;;;;;;;;;;;;1009207;29;1340;-23
2021/11/07 03:43:08;;;;;;;;;;;;;;;;;;1009173;29;1145;-23
2021/11/07 03:43:39;;;;;;;;;;;;;;;;;;1016819;29;1117;-24
2021/11/07 03:44:11;;;;;;;;;;;;;;;;;;1016672;29;1221;-24
2021/11/07 03:44:44;;;;;;;;;;;;;;;;;;1016636;29;959;-24
2021/11/07 03:45:15;;;;;;;;;;;;;;;;;;1016147;29;1036;-23
2021/11/07 03:45:46;;;;;;;;;;;;;;;;;;1012053;29;1624;-24
2021/11/07 03:46:16;;;;;;;;;;;;;;;;;;1012764;29;1233;-23
2021/11/07 03:46:48;;;;;;;;;;;;;;;;;;1012902;29;966;-23
2021/11/07 03:47:18;;;;;;;;;;;;;;;;;;1012950;29;1449;-24
2021/11/07 03:47:49;;;;;;;;;;;;;;;;;;1013627;29;1133;-24
2021/11/07 03:48:19;;;;;;;;;;;;;;;;;;1013239;29;1413;-23
2021/11/07 03:48:50;;;;;;;;;;;;;;;;;;1013345;29;1238;-24
2021/11/07 03:49:21;;;;;;;;;;;;;;;;;;1013615;29;1149;-24
2021/11/07 03:49:53;;;;;;;;;;;;;;;;;;1012932;29;1292;-23
2021/11/07 03:50:26;;;;;;;;;;;;;;;;;;1016870;29;1026;-24
2021/11/07 03:50:57;;;;;;;;;;;;;;;;;;1016640;29;1562;-23
2021/11/07 03:51:30;;;;;;;;;;;;;;;;;;1012454;29;1266;-23
2021/11/07 03:52:00;;;;;;;;;;;;;;;;;;1006915;29;1135;-23
2021/11/07 03:52:32;;;;;;;;;;;;;;;;;;1000622;29;1545;-22
2021/11/07 03:53:02;;;;;;;;;;;;;;;;;;1002119;29;1162;-24
2021/11/07 03:53:33;;;;;;;;;;;;;;;;;;1008684;29;1702;-23
2021/11/07 03:54:05;;;;;;;;;;;;;;;;;;1012396;29;1248;-24
2021/11/07 03:54:36;;;;;;;;;;;;;;;;;;1012716;29;1133;-23
2021/11/07 03:55:07;;;;;;;;;;;;;;;;;;1008323;29;1207;-24
2021/11/07 03:55:38;;;;;;;;;;;;;;;;;;1005116;29;959;-24
2021/11/07 03:56:15;;;;;;;;;;;;;;;;;;1005448;29;1129;-23
2021/11/07 03:56:45;;;;;;;;;;;;;;;;;;1009839;29;1050;-24
2021/11/07 03:57:16;;;;;;;;;;;;;;;;;;1012865;29;851;-24
2021/11/07 03:57:47;;;;;;;;;;;;;;;;;;1012763;29;1911;-23
2021/11/07 03:58:18;;;;;;;;;;;;;;;;;;1012735;29;938;-23
2021/11/07 03:58:49;;;;;;;;;;;;;;;;;;1008787;29;1668;-23
2021/11/07 03:59:19;;;;;;;;;;;;;;;;;;1009014;29;966;-23
2021/11/07 03:59:50;;;;;;;;;;;;;;;;;;1020416;29;1082;-24
2021/11/07 04:00:21;;;;;;;;;;;;;;;;;;1020640;29;1406;-24
2021/11/07 04:00:52;;;;;;;;;;;;;;;;;;1020225;29;1190;-23
2021/11/07 04:01:22;;;;;;;;;;;;;;;;;;1020605;29;1009;-23
2021/11/07 04:01:52;;;;;;;;;;;;;;;;;;1013446;29;1336;-24
2021/11/07 04:02:23;;;;;;;;;;;;;;;;;;1013231;29;1025;-24
2021/11/07 04:02:54;;;;;;;;;;;;;;;;;;1013475;29;1144;-24
2021/11/07 04:03:24;;;;;;;;;;;;;;;;;;1016575;29;1265;-24
2021/11/07 04:03:55;;;;;;;;;;;;;;;;;;1016853;29;917;-24
2021/11/07 04:04:28;;;;;;;;;;;;;;;;;;1012790;29;1142;-23
2021/11/07 04:04:59;;;;;;;;;;;;;;;;;;1011641;29;1845;-24
2021/11/07 04:05:33;;;;;;;;;;;;;;;;;;1012677;29;1114;-23
2021/11/07 04:06:04;;;;;;;;;;;;;;;;;;1013450;29;1796;-24
2021/11/07 04:06:36;;;;;;;;;;;;;;;;;;1008778;29;1035;-24
2021/11/07 04:07:07;;;;;;;;;;;;;;;;;;1008218;29;1119;-24
2021/11/07 04:07:38;;;;;;;;;;;;;;;;;;1004257;29;1726;-23
2021/11/07 04:08:09;;;;;;;;;;;;;;;;;;1009113;29;1313;-22
2021/11/07 04:08:40;;;;;;;;;;;;;;;;;;1012427;29;1284;-24
2021/11/07 04:09:11;;;;;;;;;;;;;;;;;;1012425;29;1429;-23
2021/11/07 04:09:42;;;;;;;;;;;;;;;;;;1012565;29;1325;-24
2021/11/07 04:10:12;;;;;;;;;;;;;;;;;;1013618;29;1550;-24
2021/11/07 04:10:42;;;;;;;;;;;;;;;;;;1008965;29;1019;-22
2021/11/07 04:11:13;;;;;;;;;;;;;;;;;;1008937;29;1002;-23
2021/11/07 04:11:44;;;;;;;;;;;;;;;;;;1009035;29;1100;-23
2021/11/07 04:12:15;;;;;;;;;;;;;;;;;;1016632;29;875;-24
2021/11/07 04:12:46;;;;;;;;;;;;;;;;;;1016721;29;1066;-23
2021/11/07 04:13:16;;;;;;;;;;;;;;;;;;1012629;29;1006;-23
2021/11/07 04:13:48;;;;;;;;;;;;;;;;;;1012774;29;1152;-24
2021/11/07 04:14:18;;;;;;;;;;;;;;;;;;1004839;29;885;-24
2021/11/07 04:14:49;;;;;;;;;;;;;;;;;;1008877;29;1144;-22
2021/11/07 04:15:20;;;;;;;;;;;;;;;;;;1012433;29;1496;-23
2021/11/07 04:15:53;;;;;;;;;;;;;;;;;;1004806;29;1110;-24
2021/11/07 04:16:24;;;;;;;;;;;;;;;;;;1004257;29;1047;-23
2021/11/07 04:16:54;;;;;;;;;;;;;;;;;;993194;29;1448;-24
2021/11/07 04:17:25;;;;;;;;;;;;;;;;;;1002050;29;1042;-24